Flight Track Log - Related Links

Times and Time Zones

All times are in EDT time to prevent confusion due to time zone crossing. See the N775NC flight status page for this flight to view local times or setup timezone preferences in your user account.

Time Position Orientation Groundspeed Altitude Reporting Facility
EDT Latitude Longitude Course Direction KTS MPH feet Rate Location/Type
Tue 05:44:00 AM 32.2442 -81.6432 287° West  Level FlightAware Approximate
Tue 05:49:30 AM 32.1328 -81.2489 287° West 404 465 1,700  Level Jacksonville Center
Tue 05:50:30 AM 32.1442 -81.3050 283° West 275 316 3,300 2,000 Climbing Jacksonville Center
Tue 05:51:30 AM 32.1594 -81.3758 284° West 229 264 5,700 2,550 Climbing Jacksonville Center
Tue 05:52:30 AM 32.1833 -81.4589 289° West 229 264 8,400 2,190 Climbing Jacksonville Center
Tue 05:54:39 AM 32.2161 -81.6503 281° West 299 344 12,600 2,032 Climbing Atlanta Center
Tue 05:55:39 AM 32.2350 -81.7750 280° West 333 383 14,800 2,100 Climbing Atlanta Center
Tue 05:56:39 AM 32.2742 -81.8647 297° West 338 389 16,800 1,900 Climbing Atlanta Center
Tue 05:57:39 AM 32.3386 -81.9592 309° West 348 400 18,600 1,050 Climbing Atlanta Center
Tue 05:58:39 AM 32.3986 -82.0586 306° West 366 421 18,900 200 Climbing Atlanta Center
Tue 05:59:39 AM 32.4608 -82.1606 306° West 372 428 19,000 50 Climbing Atlanta Center
Tue 06:00:39 AM 32.5250 -82.2725 304° West 393 452 19,000  Level Atlanta Center
Tue 06:01:39 AM 32.5892 -82.3894 303° West 411 473 19,000  Level Atlanta Center
Tue 06:02:39 AM 32.6575 -82.4969 307° West 417 480 19,000  Level Atlanta Center
Tue 06:03:39 AM 32.7256 -82.6092 306° West 417 480 19,000  Level Atlanta Center
Tue 06:04:39 AM 32.7914 -82.7144 307° West 417 480 19,000  Level Atlanta Center
Tue 06:05:39 AM 32.8594 -82.8197 308° West 412 474 19,000  Level Atlanta Center
Tue 06:06:39 AM 32.9292 -82.9300 307° West 412 474 19,000  Level Atlanta Center
Tue 06:07:39 AM 32.9969 -83.0456 305° West 412 474 19,000 -100 Level Atlanta Center
Tue 06:08:39 AM 33.0689 -83.1614 307° West 423 487 18,800 -650 Descending Atlanta Center
Tue 06:09:39 AM 33.1406 -83.2647 310° West 423 487 17,700 -1,300 Descending Atlanta Center
Tue 06:10:39 AM 33.2017 -83.3758 303° West 410 472 16,200 -1,700 Descending Atlanta Center
Tue 06:11:39 AM 33.2608 -83.4872 302° West 404 465 14,300 -1,850 Descending Atlanta Center
Tue 06:12:39 AM 33.3050 -83.6139 293° West 385 443 12,500 -1,150 Descending Atlanta Center
Tue 06:13:39 AM 33.3514 -83.7206 298° West 367 422 12,000 -700 Descending Atlanta Center
Tue 06:14:39 AM 33.3975 -83.8172 300° West 352 405 11,100 -1,100 Descending Atlanta Center
Tue 06:15:39 AM 33.4497 -83.8919 310° West 321 369 9,800 -1,300 Descending Atlanta Center
Tue 06:16:39 AM 33.5061 -83.9517 319° Northwest 274 315 8,500 -1,400 Descending Atlanta Center
Tue 06:17:39 AM 33.5689 -83.9914 332° Northwest 253 291 7,000 -1,500 Descending Atlanta Center
Tue 06:18:39 AM 33.6189 -84.0414 320° Northwest 242 278 5,500 -1,350 Descending Atlanta Center
Tue 06:19:39 AM 33.6294 -84.1136 280° West 228 262 4,300 -947 Descending Atlanta Center
Tue 06:20:14 AM 33.6333 -84.1500 277° West 210 242 4,000 -119 Descending Atlanta TRACON
Tue 06:21:20 AM 33.6333 -84.2167 270° West 176 203 4,100 -278 Climbing Atlanta TRACON
Tue 06:22:02 AM 33.6333 -84.2500 270° West 176 203 3,500 -882 Descending Atlanta TRACON
Tue 06:23:02 AM 33.6333 -84.3167 270° West 167 192 2,600 -789 Descending Atlanta TRACON
Tue 06:23:56 AM 33.6333 -84.3500 270° West 118 136 2,000 -632 Descending Atlanta TRACON
Tue 06:24:56 AM 33.6333 -84.4000 270° West 123 142 1,400 -600 Descending Atlanta TRACON

Login

Don't have an account? Register now (free) for customized features, flight alerts, and more!